sensor_id;sensor_type;location;lat;lon;timestamp;pressure;altitude;pressure_sealevel;temperature;humidity
43683;BME280;29285;52.128;21.060;2024-01-15T00:03:30;98197.31;;;0.69;100.00
43683;BME280;29285;52.128;21.060;2024-01-15T00:08:31;98188.31;;;0.64;100.00
43683;BME280;29285;52.128;21.060;2024-01-15T00:13:32;98186.65;;;0.60;100.00
43683;BME280;29285;52.128;21.060;2024-01-15T00:18:33;98173.69;;;0.60;100.00
43683;BME280;29285;52.128;21.060;2024-01-15T00:23:35;98164.49;;;0.57;100.00
43683;BME280;29285;52.128;21.060;2024-01-15T00:28:37;98153.59;;;0.53;100.00
43683;BME280;29285;52.128;21.060;2024-01-15T00:33:38;98151.22;;;0.53;100.00
43683;BME280;29285;52.128;21.060;2024-01-15T00:38:39;98147.11;;;0.55;100.00
43683;BME280;29285;52.128;21.060;2024-01-15T00:43:41;98139.58;;;0.57;100.00
43683;BME280;29285;52.128;21.060;2024-01-15T00:48:42;98126.27;;;0.57;100.00
43683;BME280;29285;52.128;21.060;2024-01-15T00:53:43;98124.43;;;0.54;100.00
43683;BME280;29285;52.128;21.060;2024-01-15T00:58:44;98117.44;;;0.53;100.00
43683;BME280;29285;52.128;21.060;2024-01-15T01:03:46;98107.39;;;0.51;100.00
43683;BME280;29285;52.128;21.060;2024-01-15T01:08:47;98102.44;;;0.51;100.00
43683;BME280;29285;52.128;21.060;2024-01-15T01:13:48;98090.05;;;0.46;100.00
43683;BME280;29285;52.128;21.060;2024-01-15T01:18:49;98082.59;;;0.40;100.00
43683;BME280;29285;52.128;21.060;2024-01-15T01:23:50;98080.41;;;0.35;100.00
43683;BME280;29285;52.128;21.060;2024-01-15T01:28:51;98080.66;;;0.30;100.00
43683;BME280;29285;52.128;21.060;2024-01-15T01:33:52;98070.64;;;0.25;100.00
43683;BME280;29285;52.128;21.060;2024-01-15T01:38:53;98067.06;;;0.24;100.00
43683;BME280;29285;52.128;21.060;2024-01-15T01:43:54;98065.36;;;0.24;100.00
43683;BME280;29285;52.128;21.060;2024-01-15T01:48:56;98062.61;;;0.26;100.00
43683;BME280;29285;52.128;21.060;2024-01-15T01:53:58;98054.20;;;0.31;100.00
43683;BME280;29285;52.128;21.060;2024-01-15T01:59:00;98045.30;;;0.33;100.00
43683;BME280;29285;52.128;21.060;2024-01-15T02:04:03;98039.16;;;0.33;100.00
43683;BME280;29285;52.128;21.060;2024-01-15T02:09:04;98035.55;;;0.35;100.00
43683;BME280;29285;52.128;21.060;2024-01-15T02:14:06;98027.65;;;0.40;100.00
43683;BME280;29285;52.128;21.060;2024-01-15T02:19:07;98029.16;;;0.42;100.00
43683;BME280;29285;52.128;21.060;2024-01-15T02:24:13;98014.84;;;0.42;100.00
43683;BME280;29285;52.128;21.060;2024-01-15T02:29:17;98012.47;;;0.40;100.00
43683;BME280;29285;52.128;21.060;2024-01-15T02:34:18;97998.84;;;0.39;100.00
43683;BME280;29285;52.128;21.060;2024-01-15T02:39:19;97995.91;;;0.41;100.00
43683;BME280;29285;52.128;21.060;2024-01-15T02:44:21;97990.63;;;0.41;100.00
43683;BME280;29285;52.128;21.060;2024-01-15T02:49:22;97988.23;;;0.40;100.00
43683;BME280;29285;52.128;21.060;2024-01-15T02:54:23;97982.23;;;0.44;100.00
43683;BME280;29285;52.128;21.060;2024-01-15T02:59:25;97971.30;;;0.44;100.00
43683;BME280;29285;52.128;21.060;2024-01-15T03:04:26;97959.71;;;0.44;100.00
43683;BME280;29285;52.128;21.060;2024-01-15T03:09:27;97948.13;;;0.42;100.00
43683;BME280;29285;52.128;21.060;2024-01-15T03:14:28;97935.89;;;0.39;100.00
43683;BME280;29285;52.128;21.060;2024-01-15T03:19:29;97926.48;;;0.40;100.00
43683;BME280;29285;52.128;21.060;2024-01-15T03:24:32;97918.17;;;0.36;100.00
43683;BME280;29285;52.128;21.060;2024-01-15T03:29:33;97917.77;;;0.29;100.00
43683;BME280;29285;52.128;21.060;2024-01-15T03:34:34;97910.71;;;0.20;100.00
43683;BME280;29285;52.128;21.060;2024-01-15T03:39:36;97907.53;;;0.15;100.00
43683;BME280;29285;52.128;21.060;2024-01-15T03:44:37;97906.38;;;0.12;100.00
43683;BME280;29285;52.128;21.060;2024-01-15T03:49:38;97900.94;;;0.11;100.00
43683;BME280;29285;52.128;21.060;2024-01-15T03:54:39;97894.98;;;0.11;100.00
43683;BME280;29285;52.128;21.060;2024-01-15T03:59:40;97885.78;;;0.10;100.00
43683;BME280;29285;52.128;21.060;2024-01-15T04:04:43;97880.65;;;0.11;100.00
43683;BME280;29285;52.128;21.060;2024-01-15T04:09:44;97870.55;;;0.13;100.00
43683;BME280;29285;52.128;21.060;2024-01-15T04:14:45;97858.94;;;0.15;100.00
43683;BME280;29285;52.128;21.060;2024-01-15T04:19:46;97847.69;;;0.14;100.00
43683;BME280;29285;52.128;21.060;2024-01-15T04:24:49;97839.86;;;0.12;100.00
43683;BME280;29285;52.128;21.060;2024-01-15T04:29:50;97830.66;;;0.12;100.00
43683;BME280;29285;52.128;21.060;2024-01-15T04:34:51;97820.29;;;0.11;100.00
43683;BME280;29285;52.128;21.060;2024-01-15T04:39:52;97812.92;;;0.12;100.00
43683;BME280;29285;52.128;21.060;2024-01-15T04:44:56;97808.97;;;0.15;100.00
43683;BME280;29285;52.128;21.060;2024-01-15T04:49:57;97806.91;;;0.16;100.00
43683;BME280;29285;52.128;21.060;2024-01-15T04:54:58;97804.00;;;0.17;100.00
43683;BME280;29285;52.128;21.060;2024-01-15T04:59:59;97801.61;;;0.18;100.00
43683;BME280;29285;52.128;21.060;2024-01-15T05:05:00;97788.94;;;0.20;100.00
43683;BME280;29285;52.128;21.060;2024-01-15T05:10:01;97781.48;;;0.18;100.00
43683;BME280;29285;52.128;21.060;2024-01-15T05:15:03;97779.80;;;0.17;100.00
43683;BME280;29285;52.128;21.060;2024-01-15T05:20:05;97780.30;;;0.17;100.00
43683;BME280;29285;52.128;21.060;2024-01-15T05:25:06;97776.66;;;0.20;100.00
43683;BME280;29285;52.128;21.060;2024-01-15T05:30:08;97778.35;;;0.21;100.00
43683;BME280;29285;52.128;21.060;2024-01-15T05:35:09;97770.86;;;0.21;100.00
43683;BME280;29285;52.128;21.060;2024-01-15T05:40:12;97776.74;;;0.25;100.00
43683;BME280;29285;52.128;21.060;2024-01-15T05:45:14;97770.09;;;0.26;100.00
43683;BME280;29285;52.128;21.060;2024-01-15T05:50:15;97770.60;;;0.26;100.00
43683;BME280;29285;52.128;21.060;2024-01-15T05:55:16;97770.97;;;0.25;100.00
43683;BME280;29285;52.128;21.060;2024-01-15T06:00:19;97765.34;;;0.24;100.00
43683;BME280;29285;52.128;21.060;2024-01-15T06:05:21;97763.45;;;0.25;100.00
43683;BME280;29285;52.128;21.060;2024-01-15T06:10:22;97762.71;;;0.28;100.00
43683;BME280;29285;52.128;21.060;2024-01-15T06:15:23;97764.02;;;0.32;100.00
43683;BME280;29285;52.128;21.060;2024-01-15T06:20:24;97757.73;;;0.32;100.00
43683;BME280;29285;52.128;21.060;2024-01-15T06:25:25;97753.30;;;0.31;100.00
43683;BME280;29285;52.128;21.060;2024-01-15T06:30:29;97741.35;;;0.32;100.00
43683;BME280;29285;52.128;21.060;2024-01-15T06:35:31;97741.42;;;0.38;100.00
43683;BME280;29285;52.128;21.060;2024-01-15T06:40:32;97730.60;;;0.43;100.00
43683;BME280;29285;52.128;21.060;2024-01-15T06:45:33;97734.45;;;0.47;100.00
43683;BME280;29285;52.128;21.060;2024-01-15T06:50:35;97730.01;;;0.48;100.00
43683;BME280;29285;52.128;21.060;2024-01-15T06:55:37;97718.45;;;0.45;100.00
43683;BME280;29285;52.128;21.060;2024-01-15T07:00:38;97724.98;;;0.42;100.00
43683;BME280;29285;52.128;21.060;2024-01-15T07:05:39;97729.59;;;0.41;100.00
43683;BME280;29285;52.128;21.060;2024-01-15T07:10:40;97728.60;;;0.39;100.00
43683;BME280;29285;52.128;21.060;2024-01-15T07:15:41;97733.90;;;0.38;100.00
43683;BME280;29285;52.128;21.060;2024-01-15T07:20:43;97732.17;;;0.40;100.00
43683;BME280;29285;52.128;21.060;2024-01-15T07:25:44;97738.69;;;0.38;100.00
43683;BME280;29285;52.128;21.060;2024-01-15T07:30:45;97732.47;;;0.32;100.00
43683;BME280;29285;52.128;21.060;2024-01-15T07:35:46;97735.67;;;0.24;100.00
43683;BME280;29285;52.128;21.060;2024-01-15T07:40:47;97730.76;;;0.22;100.00
43683;BME280;29285;52.128;21.060;2024-01-15T07:45:50;97735.44;;;0.17;100.00
43683;BME280;29285;52.128;21.060;2024-01-15T07:50:51;97736.88;;;0.12;100.00
43683;BME280;29285;52.128;21.060;2024-01-15T07:55:52;97737.40;;;0.12;100.00
43683;BME280;29285;52.128;21.060;2024-01-15T08:00:53;97736.80;;;0.06;100.00
43683;BME280;29285;52.128;21.060;2024-01-15T08:05:54;97735.09;;;0.17;100.00
43683;BME280;29285;52.128;21.060;2024-01-15T08:10:58;97733.56;;;0.28;100.00
43683;BME280;29285;52.128;21.060;2024-01-15T08:15:59;97732.85;;;0.30;100.00
43683;BME280;29285;52.128;21.060;2024-01-15T08:21:00;97737.78;;;0.31;100.00
43683;BME280;29285;52.128;21.060;2024-01-15T08:26:01;97734.51;;;0.33;100.00
43683;BME280;29285;52.128;21.060;2024-01-15T08:31:03;97737.04;;;0.35;100.00
43683;BME280;29285;52.128;21.060;2024-01-15T08:36:04;97740.90;;;0.38;100.00
43683;BME280;29285;52.128;21.060;2024-01-15T08:41:05;97739.64;;;0.42;100.00
43683;BME280;29285;52.128;21.060;2024-01-15T08:46:06;97741.04;;;0.50;100.00
43683;BME280;29285;52.128;21.060;2024-01-15T08:51:08;97742.83;;;0.57;100.00
43683;BME280;29285;52.128;21.060;2024-01-15T08:56:09;97736.88;;;0.55;100.00
43683;BME280;29285;52.128;21.060;2024-01-15T09:01:10;97739.16;;;0.51;100.00
43683;BME280;29285;52.128;21.060;2024-01-15T09:06:12;97744.34;;;0.47;100.00
43683;BME280;29285;52.128;21.060;2024-01-15T09:11:13;97751.75;;;0.53;100.00
43683;BME280;29285;52.128;21.060;2024-01-15T09:16:14;97756.23;;;0.62;100.00
43683;BME280;29285;52.128;21.060;2024-01-15T09:21:15;97745.95;;;0.74;100.00
43683;BME280;29285;52.128;21.060;2024-01-15T09:26:16;97740.65;;;0.93;100.00
43683;BME280;29285;52.128;21.060;2024-01-15T09:31:17;97746.54;;;1.16;100.00
43683;BME280;29285;52.128;21.060;2024-01-15T09:36:21;97735.80;;;1.33;100.00
43683;BME280;29285;52.128;21.060;2024-01-15T09:41:22;97732.41;;;1.31;100.00
43683;BME280;29285;52.128;21.060;2024-01-15T09:46:23;97737.61;;;1.27;100.00
43683;BME280;29285;52.128;21.060;2024-01-15T09:51:25;97727.85;;;1.28;100.00
43683;BME280;29285;52.128;21.060;2024-01-15T09:56:26;97725.85;;;1.26;100.00
43683;BME280;29285;52.128;21.060;2024-01-15T10:01:31;97730.82;;;1.26;100.00
43683;BME280;29285;52.128;21.060;2024-01-15T10:06:33;97722.08;;;1.27;100.00
43683;BME280;29285;52.128;21.060;2024-01-15T10:11:34;97715.71;;;1.29;100.00
43683;BME280;29285;52.128;21.060;2024-01-15T10:16:36;97717.31;;;1.34;100.00
43683;BME280;29285;52.128;21.060;2024-01-15T10:21:38;97718.98;;;1.36;100.00
43683;BME280;29285;52.128;21.060;2024-01-15T10:26:39;97714.05;;;1.35;100.00
43683;BME280;29285;52.128;21.060;2024-01-15T10:31:40;97711.79;;;1.37;100.00
43683;BME280;29285;52.128;21.060;2024-01-15T10:36:45;97720.34;;;1.37;100.00
43683;BME280;29285;52.128;21.060;2024-01-15T10:41:49;97720.15;;;1.29;100.00
43683;BME280;29285;52.128;21.060;2024-01-15T10:46:51;97728.52;;;1.20;100.00
43683;BME280;29285;52.128;21.060;2024-01-15T10:51:53;97728.02;;;1.29;100.00
43683;BME280;29285;52.128;21.060;2024-01-15T10:56:58;97726.59;;;1.40;100.00
43683;BME280;29285;52.128;21.060;2024-01-15T11:01:59;97721.93;;;1.51;100.00
43683;BME280;29285;52.128;21.060;2024-01-15T11:07:01;97732.27;;;1.46;100.00
43683;BME280;29285;52.128;21.060;2024-01-15T11:12:10;97728.63;;;1.33;100.00
43683;BME280;29285;52.128;21.060;2024-01-15T11:17:12;97725.80;;;1.28;100.00
43683;BME280;29285;52.128;21.060;2024-01-15T11:22:55;97730.73;;;1.21;100.00
43683;BME280;29285;52.128;21.060;2024-01-15T11:27:58;97735.20;;;1.19;100.00
43683;BME280;29285;52.128;21.060;2024-01-15T11:32:59;97723.15;;;1.15;100.00
43683;BME280;29285;52.128;21.060;2024-01-15T11:38:00;97723.86;;;1.14;100.00
43683;BME280;29285;52.128;21.060;2024-01-15T11:43:02;97702.05;;;1.20;100.00
43683;BME280;29285;52.128;21.060;2024-01-15T11:48:15;97696.99;;;1.25;100.00
43683;BME280;29285;52.128;21.060;2024-01-15T11:53:27;97703.19;;;1.32;100.00
43683;BME280;29285;52.128;21.060;2024-01-15T11:58:34;97702.77;;;1.27;100.00
43683;BME280;29285;52.128;21.060;2024-01-15T12:03:36;97693.46;;;1.23;100.00
43683;BME280;29285;52.128;21.060;2024-01-15T12:08:38;97695.65;;;1.40;100.00
43683;BME280;29285;52.128;21.060;2024-01-15T12:13:39;97695.04;;;1.37;100.00
43683;BME280;29285;52.128;21.060;2024-01-15T12:18:40;97693.77;;;1.06;100.00
43683;BME280;29285;52.128;21.060;2024-01-15T12:23:42;97704.98;;;0.92;100.00
43683;BME280;29285;52.128;21.060;2024-01-15T12:28:43;97695.16;;;0.88;100.00
43683;BME280;29285;52.128;21.060;2024-01-15T12:33:44;97697.16;;;0.90;100.00
43683;BME280;29285;52.128;21.060;2024-01-15T12:38:45;97688.98;;;0.80;100.00
43683;BME280;29285;52.128;21.060;2024-01-15T12:43:47;97691.15;;;0.64;100.00
43683;BME280;29285;52.128;21.060;2024-01-15T12:48:48;97685.89;;;0.52;100.00
43683;BME280;29285;52.128;21.060;2024-01-15T12:53:49;97677.84;;;0.46;100.00
43683;BME280;29285;52.128;21.060;2024-01-15T12:58:50;97687.76;;;0.43;100.00
43683;BME280;29285;52.128;21.060;2024-01-15T13:03:51;97689.33;;;0.52;100.00
43683;BME280;29285;52.128;21.060;2024-01-15T13:08:52;97700.12;;;0.49;100.00
43683;BME280;29285;52.128;21.060;2024-01-15T13:13:53;97693.64;;;-0.04;100.00
43683;BME280;29285;52.128;21.060;2024-01-15T13:18:55;97692.95;;;-0.26;100.00
43683;BME280;29285;52.128;21.060;2024-01-15T13:23:57;97700.84;;;-0.29;100.00
43683;BME280;29285;52.128;21.060;2024-01-15T13:29:02;97699.67;;;-0.31;100.00
43683;BME280;29285;52.128;21.060;2024-01-15T13:34:04;97699.44;;;-0.26;100.00
43683;BME280;29285;52.128;21.060;2024-01-15T13:39:05;97686.99;;;-0.15;100.00
43683;BME280;29285;52.128;21.060;2024-01-15T13:44:09;97688.52;;;-0.02;100.00
43683;BME280;29285;52.128;21.060;2024-01-15T13:49:11;97691.29;;;0.05;100.00
43683;BME280;29285;52.128;21.060;2024-01-15T13:54:12;97700.27;;;0.08;100.00
43683;BME280;29285;52.128;21.060;2024-01-15T13:59:13;97707.33;;;0.05;100.00
43683;BME280;29285;52.128;21.060;2024-01-15T14:04:15;97696.67;;;0.09;100.00
43683;BME280;29285;52.128;21.060;2024-01-15T14:09:16;97704.16;;;0.10;100.00
43683;BME280;29285;52.128;21.060;2024-01-15T14:14:17;97713.34;;;0.12;100.00
43683;BME280;29285;52.128;21.060;2024-01-15T14:19:18;97714.35;;;0.14;100.00
43683;BME280;29285;52.128;21.060;2024-01-15T14:24:21;97711.24;;;0.16;100.00
43683;BME280;29285;52.128;21.060;2024-01-15T14:29:22;97715.20;;;0.14;100.00
43683;BME280;29285;52.128;21.060;2024-01-15T14:34:27;97711.27;;;0.15;100.00
43683;BME280;29285;52.128;21.060;2024-01-15T14:39:28;97712.07;;;0.17;100.00
43683;BME280;29285;52.128;21.060;2024-01-15T14:44:29;97714.81;;;0.17;100.00
43683;BME280;29285;52.128;21.060;2024-01-15T14:49:30;97705.91;;;0.19;100.00
43683;BME280;29285;52.128;21.060;2024-01-15T14:54:32;97705.13;;;0.15;100.00
43683;BME280;29285;52.128;21.060;2024-01-15T14:59:33;97711.17;;;0.10;100.00
43683;BME280;29285;52.128;21.060;2024-01-15T15:04:35;97703.02;;;0.08;100.00
43683;BME280;29285;52.128;21.060;2024-01-15T15:09:36;97701.86;;;0.04;100.00
43683;BME280;29285;52.128;21.060;2024-01-15T15:14:38;97703.21;;;0.06;100.00
43683;BME280;29285;52.128;21.060;2024-01-15T15:19:39;97707.66;;;0.05;100.00
43683;BME280;29285;52.128;21.060;2024-01-15T15:24:42;97699.30;;;0.05;100.00
43683;BME280;29285;52.128;21.060;2024-01-15T15:29:45;97703.08;;;0.03;100.00
43683;BME280;29285;52.128;21.060;2024-01-15T15:34:46;97698.58;;;-0.03;100.00
43683;BME280;29285;52.128;21.060;2024-01-15T15:39:48;97704.75;;;-0.06;100.00
43683;BME280;29285;52.128;21.060;2024-01-15T15:44:49;97701.70;;;-0.07;100.00
43683;BME280;29285;52.128;21.060;2024-01-15T15:49:51;97697.48;;;-0.10;100.00
43683;BME280;29285;52.128;21.060;2024-01-15T15:54:53;97692.94;;;-0.14;100.00
43683;BME280;29285;52.128;21.060;2024-01-15T15:59:54;97690.61;;;-0.17;100.00
43683;BME280;29285;52.128;21.060;2024-01-15T16:04:56;97699.64;;;-0.18;100.00
43683;BME280;29285;52.128;21.060;2024-01-15T16:09:58;97695.67;;;-0.14;100.00
43683;BME280;29285;52.128;21.060;2024-01-15T16:15:02;97692.07;;;-0.12;100.00
43683;BME280;29285;52.128;21.060;2024-01-15T16:20:03;97689.63;;;-0.09;100.00
43683;BME280;29285;52.128;21.060;2024-01-15T16:25:05;97685.32;;;-0.05;100.00
43683;BME280;29285;52.128;21.060;2024-01-15T16:30:07;97674.79;;;-0.08;100.00
43683;BME280;29285;52.128;21.060;2024-01-15T16:35:09;97671.73;;;-0.09;100.00
43683;BME280;29285;52.128;21.060;2024-01-15T16:40:11;97668.34;;;-0.10;100.00
43683;BME280;29285;52.128;21.060;2024-01-15T16:45:12;97668.00;;;-0.11;100.00
43683;BME280;29285;52.128;21.060;2024-01-15T16:50:13;97679.45;;;-0.13;100.00
43683;BME280;29285;52.128;21.060;2024-01-15T16:55:14;97682.39;;;-0.15;100.00
43683;BME280;29285;52.128;21.060;2024-01-15T17:00:15;97690.05;;;-0.14;100.00
43683;BME280;29285;52.128;21.060;2024-01-15T17:05:17;97686.81;;;-0.14;100.00
43683;BME280;29285;52.128;21.060;2024-01-15T17:10:19;97692.23;;;-0.13;100.00
43683;BME280;29285;52.128;21.060;2024-01-15T17:15:20;97692.20;;;-0.10;100.00
43683;BME280;29285;52.128;21.060;2024-01-15T17:20:21;97676.34;;;-0.09;100.00
43683;BME280;29285;52.128;21.060;2024-01-15T17:25:22;97671.03;;;-0.08;100.00
43683;BME280;29285;52.128;21.060;2024-01-15T17:30:23;97675.11;;;-0.07;100.00
43683;BME280;29285;52.128;21.060;2024-01-15T17:35:24;97692.98;;;-0.05;100.00
43683;BME280;29285;52.128;21.060;2024-01-15T17:40:26;97702.52;;;-0.05;100.00
43683;BME280;29285;52.128;21.060;2024-01-15T17:45:28;97703.42;;;-0.08;100.00
43683;BME280;29285;52.128;21.060;2024-01-15T17:50:30;97699.73;;;-0.12;100.00
43683;BME280;29285;52.128;21.060;2024-01-15T17:55:32;97711.52;;;-0.02;100.00
43683;BME280;29285;52.128;21.060;2024-01-15T18:00:33;97716.93;;;0.12;100.00
43683;BME280;29285;52.128;21.060;2024-01-15T18:05:34;97724.63;;;0.22;100.00
43683;BME280;29285;52.128;21.060;2024-01-15T18:10:35;97714.81;;;0.27;100.00
43683;BME280;29285;52.128;21.060;2024-01-15T18:15:37;97713.73;;;0.21;100.00
43683;BME280;29285;52.128;21.060;2024-01-15T18:20:38;97712.54;;;0.10;100.00
43683;BME280;29285;52.128;21.060;2024-01-15T18:25:39;97725.06;;;-0.07;100.00
43683;BME280;29285;52.128;21.060;2024-01-15T18:30:41;97764.50;;;-0.12;100.00
43683;BME280;29285;52.128;21.060;2024-01-15T18:35:42;97780.13;;;-0.21;100.00
43683;BME280;29285;52.128;21.060;2024-01-15T18:40:43;97768.08;;;-0.37;100.00
43683;BME280;29285;52.128;21.060;2024-01-15T18:45:44;97773.15;;;-0.48;100.00
43683;BME280;29285;52.128;21.060;2024-01-15T18:50:46;97772.47;;;-0.48;100.00
43683;BME280;29285;52.128;21.060;2024-01-15T18:55:48;97780.73;;;-0.42;100.00
43683;BME280;29285;52.128;21.060;2024-01-15T19:00:49;97779.45;;;-0.33;100.00
43683;BME280;29285;52.128;21.060;2024-01-15T19:05:50;97780.39;;;-0.26;100.00
43683;BME280;29285;52.128;21.060;2024-01-15T19:10:52;97790.63;;;-0.29;100.00
43683;BME280;29285;52.128;21.060;2024-01-15T19:15:55;97804.35;;;-0.34;100.00
43683;BME280;29285;52.128;21.060;2024-01-15T19:20:56;97811.07;;;-0.41;100.00
43683;BME280;29285;52.128;21.060;2024-01-15T19:25:57;97813.95;;;-0.42;100.00
43683;BME280;29285;52.128;21.060;2024-01-15T19:30:58;97815.64;;;-0.39;100.00
43683;BME280;29285;52.128;21.060;2024-01-15T19:36:01;97820.44;;;-0.40;100.00
43683;BME280;29285;52.128;21.060;2024-01-15T19:41:02;97823.30;;;-0.39;100.00
43683;BME280;29285;52.128;21.060;2024-01-15T19:46:04;97824.83;;;-0.37;100.00
43683;BME280;29285;52.128;21.060;2024-01-15T19:51:05;97830.45;;;-0.38;100.00
43683;BME280;29285;52.128;21.060;2024-01-15T19:56:06;97833.01;;;-0.38;100.00
43683;BME280;29285;52.128;21.060;2024-01-15T20:01:08;97847.84;;;-0.39;100.00
43683;BME280;29285;52.128;21.060;2024-01-15T20:06:10;97858.11;;;-0.44;100.00
43683;BME280;29285;52.128;21.060;2024-01-15T20:11:14;97854.06;;;-0.48;100.00
43683;BME280;29285;52.128;21.060;2024-01-15T20:16:15;97865.20;;;-0.52;100.00
43683;BME280;29285;52.128;21.060;2024-01-15T20:21:16;97876.64;;;-0.56;100.00
43683;BME280;29285;52.128;21.060;2024-01-15T20:26:19;97889.13;;;-0.61;100.00
43683;BME280;29285;52.128;21.060;2024-01-15T20:31:20;97910.98;;;-0.67;100.00
43683;BME280;29285;52.128;21.060;2024-01-15T20:36:21;97917.52;;;-0.74;100.00
43683;BME280;29285;52.128;21.060;2024-01-15T20:41:22;97916.73;;;-0.80;100.00
43683;BME280;29285;52.128;21.060;2024-01-15T20:46:23;97919.65;;;-0.84;100.00
43683;BME280;29285;52.128;21.060;2024-01-15T20:51:24;97916.92;;;-0.85;100.00
43683;BME280;29285;52.128;21.060;2024-01-15T20:56:26;97923.70;;;-0.79;100.00
43683;BME280;29285;52.128;21.060;2024-01-15T21:01:27;97927.77;;;-0.79;100.00
43683;BME280;29285;52.128;21.060;2024-01-15T21:06:28;97931.18;;;-0.78;100.00
43683;BME280;29285;52.128;21.060;2024-01-15T21:11:29;97935.29;;;-0.79;100.00
43683;BME280;29285;52.128;21.060;2024-01-15T21:16:30;97939.55;;;-0.80;100.00
43683;BME280;29285;52.128;21.060;2024-01-15T21:21:31;97944.66;;;-0.83;100.00
43683;BME280;29285;52.128;21.060;2024-01-15T21:26:32;97958.42;;;-0.79;100.00
43683;BME280;29285;52.128;21.060;2024-01-15T21:31:38;97961.33;;;-0.78;100.00
43683;BME280;29285;52.128;21.060;2024-01-15T21:36:39;97966.45;;;-0.82;100.00
43683;BME280;29285;52.128;21.060;2024-01-15T21:41:40;97977.31;;;-0.77;100.00
43683;BME280;29285;52.128;21.060;2024-01-15T21:46:41;97989.61;;;-0.80;100.00
43683;BME280;29285;52.128;21.060;2024-01-15T21:51:42;98001.89;;;-0.83;100.00
43683;BME280;29285;52.128;21.060;2024-01-15T21:56:43;98010.60;;;-0.87;100.00
43683;BME280;29285;52.128;21.060;2024-01-15T22:01:44;98030.19;;;-0.89;100.00
43683;BME280;29285;52.128;21.060;2024-01-15T22:06:52;98043.34;;;-0.95;100.00
43683;BME280;29285;52.128;21.060;2024-01-15T22:11:53;98047.61;;;-0.98;100.00
43683;BME280;29285;52.128;21.060;2024-01-15T22:16:54;98055.62;;;-1.01;100.00
43683;BME280;29285;52.128;21.060;2024-01-15T22:21:56;98066.55;;;-1.08;100.00
43683;BME280;29285;52.128;21.060;2024-01-15T22:26:57;98086.84;;;-1.15;100.00
43683;BME280;29285;52.128;21.060;2024-01-15T22:31:58;98097.08;;;-1.18;100.00
43683;BME280;29285;52.128;21.060;2024-01-15T22:36:59;98111.35;;;-1.14;100.00
43683;BME280;29285;52.128;21.060;2024-01-15T22:42:00;98111.55;;;-1.19;100.00
43683;BME280;29285;52.128;21.060;2024-01-15T22:47:02;98123.13;;;-1.22;100.00
43683;BME280;29285;52.128;21.060;2024-01-15T22:52:03;98129.08;;;-1.24;100.00
43683;BME280;29285;52.128;21.060;2024-01-15T22:57:04;98133.20;;;-1.30;100.00
43683;BME280;29285;52.128;21.060;2024-01-15T23:02:06;98145.45;;;-1.32;100.00
43683;BME280;29285;52.128;21.060;2024-01-15T23:07:07;98146.30;;;-1.37;100.00
43683;BME280;29285;52.128;21.060;2024-01-15T23:12:08;98137.83;;;-1.43;100.00
43683;BME280;29285;52.128;21.060;2024-01-15T23:17:10;98147.17;;;-1.43;100.00
43683;BME280;29285;52.128;21.060;2024-01-15T23:22:10;98153.48;;;-1.43;100.00
43683;BME280;29285;52.128;21.060;2024-01-15T23:27:13;98156.88;;;-1.43;100.00
43683;BME280;29285;52.128;21.060;2024-01-15T23:32:14;98152.11;;;-1.44;100.00
43683;BME280;29285;52.128;21.060;2024-01-15T23:37:15;98158.42;;;-1.49;100.00
43683;BME280;29285;52.128;21.060;2024-01-15T23:42:18;98166.75;;;-1.53;100.00
43683;BME280;29285;52.128;21.060;2024-01-15T23:47:19;98172.38;;;-1.53;100.00
43683;BME280;29285;52.128;21.060;2024-01-15T23:52:20;98176.63;;;-1.52;100.00
43683;BME280;29285;52.128;21.060;2024-01-15T23:57:21;98189.90;;;-1.51;100.00
